Time;durP1;ratioP1;P1;durP2;ratioP2;P2;SDS_P1;SDS_P2;PMS_P1;PMS_P2;Temp;Humidity;BMP_temperature;BMP_pressure;BME280_temperature;BME280_humidity;BME280_pressure;Samples;Min_cycle;Max_cycle;Signal;HPM_P1;HPM_P2
2022/09/15 00:00:50;;;;;;;7.32;2.90;;;;;;;;;;5068596;28;20081;-85
2022/09/15 00:03:17;;;;;;;5.68;3.08;;;;;;;;;;5055728;28;20071;-85
2022/09/15 00:05:43;;;;;;;6.07;3.17;;;;;;;;;;5037709;28;20045;-84
2022/09/15 00:08:09;;;;;;;6.75;3.40;;;;;;;;;;5053947;28;20033;-85
2022/09/15 00:10:35;;;;;;;6.13;3.20;;;;;;;;;;5058375;28;20029;-84
2022/09/15 00:13:01;;;;;;;6.32;4.30;;;;;;;;;;5054940;28;20021;-84
2022/09/15 00:15:27;;;;;;;6.53;3.70;;;;;;;;;;5034789;28;20021;-84
2022/09/15 00:17:53;;;;;;;5.60;3.47;;;;;;;;;;5035734;28;20037;-85
2022/09/15 00:20:20;;;;;;;10.02;5.03;;;;;;;;;;5050058;28;20029;-85
2022/09/15 00:22:47;;;;;;;6.93;3.63;;;;;;;;;;5053779;28;20477;-85
2022/09/15 00:25:13;;;;;;;6.60;3.42;;;;;;;;;;5036954;28;20111;-85
2022/09/15 00:27:39;;;;;;;6.18;3.20;;;;;;;;;;5037877;28;20025;-84
2022/09/15 00:30:06;;;;;;;5.93;3.05;;;;;;;;;;5063413;28;20036;-86
2022/09/15 00:32:33;;;;;;;5.95;3.00;;;;;;;;;;5047135;28;20033;-84
2022/09/15 00:34:59;;;;;;;6.38;2.95;;;;;;;;;;5034001;28;20095;-85
2022/09/15 00:37:25;;;;;;;5.75;3.03;;;;;;;;;;5065348;28;20396;-85
2022/09/15 00:39:52;;;;;;;5.25;2.90;;;;;;;;;;5056994;28;20033;-85
2022/09/15 00:42:19;;;;;;;5.70;3.17;;;;;;;;;;5044732;28;20484;-85
2022/09/15 00:44:47;;;;;;;6.70;3.15;;;;;;;;;;5052045;28;20228;-85
2022/09/15 00:47:13;;;;;;;5.63;3.20;;;;;;;;;;5037746;28;20080;-85
2022/09/15 00:49:40;;;;;;;6.00;3.60;;;;;;;;;;5041052;28;20043;-86
2022/09/15 00:52:08;;;;;;;5.00;2.65;;;;;;;;;;5052170;28;20029;-85
2022/09/15 00:54:52;;;;;;;7.88;2.80;;;;;;;;;;5050282;28;20029;-84
2022/09/15 00:57:27;;;;;;;5.47;2.70;;;;;;;;;;5053752;28;20032;-85
2022/09/15 00:59:54;;;;;;;5.53;2.85;;;;;;;;;;5052610;28;20021;-85
2022/09/15 01:02:26;;;;;;;5.85;2.60;;;;;;;;;;5040970;28;20029;-84
2022/09/15 01:04:57;;;;;;;4.75;2.53;;;;;;;;;;5049265;28;20067;-84
2022/09/15 01:07:38;;;;;;;5.03;2.13;;;;;;;;;;5066406;28;20055;-84
2022/09/15 01:10:07;;;;;;;4.55;2.20;;;;;;;;;;5051990;28;20029;-86
2022/09/15 01:12:33;;;;;;;6.25;2.25;;;;;;;;;;5039843;28;20033;-84
2022/09/15 01:15:02;;;;;;;4.57;2.28;;;;;;;;;;5035331;28;20030;-86
2022/09/15 01:17:37;;;;;;;5.40;2.50;;;;;;;;;;5040366;28;20021;-85
2022/09/15 01:20:06;;;;;;;6.15;2.30;;;;;;;;;;5055597;28;20013;-85
2022/09/15 01:22:32;;;;;;;5.20;2.35;;;;;;;;;;5056724;28;20013;-85
2022/09/15 01:24:58;;;;;;;5.28;2.60;;;;;;;;;;5055530;28;20392;-84
2022/09/15 01:27:43;;;;;;;7.00;2.22;;;;;;;;;;5056670;28;20059;-84
2022/09/15 01:30:09;;;;;;;6.00;3.35;;;;;;;;;;5057428;28;20032;-84
2022/09/15 01:35:27;;;;;;;7.15;2.60;;;;;;;;;;5057308;28;20183;-83
2022/09/15 01:38:00;;;;;;;6.07;2.60;;;;;;;;;;5056009;28;20076;-85
2022/09/15 01:40:28;;;;;;;4.60;2.15;;;;;;;;;;5055646;28;20068;-83
2022/09/15 01:42:55;;;;;;;5.43;2.25;;;;;;;;;;5038597;28;20120;-83
2022/09/15 01:45:29;;;;;;;5.35;2.05;;;;;;;;;;5036407;28;20037;-82
2022/09/15 01:47:56;;;;;;;5.28;2.15;;;;;;;;;;5072295;28;20045;-82
2022/09/15 01:50:25;;;;;;;5.28;2.33;;;;;;;;;;5056506;28;20154;-81
2022/09/15 01:52:54;;;;;;;4.53;2.35;;;;;;;;;;5052213;28;20037;-81
2022/09/15 01:55:23;;;;;;;4.50;2.60;;;;;;;;;;5055211;28;20109;-82
2022/09/15 01:57:49;;;;;;;4.82;2.17;;;;;;;;;;5073310;28;20047;-82
2022/09/15 02:00:15;;;;;;;6.45;2.67;;;;;;;;;;5059434;28;20028;-83
2022/09/15 02:02:46;;;;;;;5.50;2.40;;;;;;;;;;5043146;28;20025;-83
2022/09/15 02:05:31;;;;;;;6.05;2.20;;;;;;;;;;5054343;28;20055;-83
2022/09/15 02:07:57;;;;;;;5.40;2.05;;;;;;;;;;5055219;28;20029;-82
2022/09/15 02:10:33;;;;;;;4.53;2.17;;;;;;;;;;5055428;28;20066;-83
2022/09/15 02:13:06;;;;;;;4.05;2.13;;;;;;;;;;5048733;28;20029;-83
2022/09/15 02:15:32;;;;;;;;;;;;;;;;;;5060044;28;20029;-82
2022/09/15 02:18:00;;;;;;;4.53;2.10;;;;;;;;;;5061020;28;19909;-83
2022/09/15 02:20:30;;;;;;;6.15;2.13;;;;;;;;;;5056739;28;20024;-82
2022/09/15 02:22:59;;;;;;;6.30;2.47;;;;;;;;;;5054251;28;20029;-81
2022/09/15 02:25:30;;;;;;;5.38;2.40;;;;;;;;;;5055136;28;20079;-82
2022/09/15 02:27:59;;;;;;;5.07;2.40;;;;;;;;;;5062770;28;20029;-82
2022/09/15 02:30:26;;;;;;;5.43;2.15;;;;;;;;;;5054972;28;20039;-82
2022/09/15 02:32:57;;;;;;;4.53;2.05;;;;;;;;;;5048832;28;20021;-82
2022/09/15 02:35:24;;;;;;;5.07;1.98;;;;;;;;;;5056495;28;20037;-82
2022/09/15 02:37:51;;;;;;;4.50;2.03;;;;;;;;;;5055686;28;20111;-82
2022/09/15 02:40:18;;;;;;;4.93;2.13;;;;;;;;;;5056117;28;20503;-82
2022/09/15 02:42:52;;;;;;;4.97;2.42;;;;;;;;;;5055592;28;20031;-82
2022/09/15 02:45:19;;;;;;;4.75;1.90;;;;;;;;;;5050148;28;20030;-82
2022/09/15 02:47:45;;;;;;;5.15;2.25;;;;;;;;;;5048921;28;20507;-82
2022/09/15 02:50:11;;;;;;;5.05;1.90;;;;;;;;;;5054938;28;20036;-83
2022/09/15 02:52:37;;;;;;;4.22;1.90;;;;;;;;;;5055981;28;20029;-82
2022/09/15 02:55:03;;;;;;;4.57;1.90;;;;;;;;;;5047964;28;20079;-81
2022/09/15 02:57:29;;;;;;;4.65;1.75;;;;;;;;;;5044533;28;20473;-80
2022/09/15 03:00:16;;;;;;;5.07;2.28;;;;;;;;;;5037609;28;20052;-81
2022/09/15 03:02:44;;;;;;;4.20;1.70;;;;;;;;;;5051043;28;20020;-82
2022/09/15 03:05:10;;;;;;;4.07;1.85;;;;;;;;;;5056531;28;20496;-81
2022/09/15 03:07:37;;;;;;;5.45;2.38;;;;;;;;;;5055797;28;20036;-82
2022/09/15 03:10:04;;;;;;;4.35;1.67;;;;;;;;;;5041330;28;20112;-83
2022/09/15 03:12:30;;;;;;;4.55;1.52;;;;;;;;;;5036782;28;20040;-82
2022/09/15 03:14:56;;;;;;;3.97;1.65;;;;;;;;;;5036662;28;20029;-83
2022/09/15 03:17:22;;;;;;;6.35;1.95;;;;;;;;;;5042250;28;20053;-82
2022/09/15 03:19:49;;;;;;;5.05;1.70;;;;;;;;;;5050218;28;20013;-83
2022/09/15 03:22:15;;;;;;;5.40;2.08;;;;;;;;;;5059556;28;20017;-83
2022/09/15 03:24:41;;;;;;;5.50;2.20;;;;;;;;;;5054995;28;20029;-82
2022/09/15 03:27:08;;;;;;;4.93;1.80;;;;;;;;;;5043305;28;20025;-83
2022/09/15 03:29:34;;;;;;;4.93;2.17;;;;;;;;;;5057412;28;20519;-83
2022/09/15 03:32:00;;;;;;;4.43;2.00;;;;;;;;;;5061026;28;20040;-82
2022/09/15 03:34:26;;;;;;;5.25;1.92;;;;;;;;;;5056925;28;20036;-81
2022/09/15 03:36:52;;;;;;;4.80;2.28;;;;;;;;;;5058918;28;20025;-83
2022/09/15 03:39:18;;;;;;;5.93;2.17;;;;;;;;;;5057432;28;20025;-80
2022/09/15 03:41:44;;;;;;;4.88;2.20;;;;;;;;;;5062066;28;20222;-79
2022/09/15 03:44:10;;;;;;;6.05;2.97;;;;;;;;;;5062227;28;20054;-80
2022/09/15 03:46:36;;;;;;;8.02;2.10;;;;;;;;;;5060164;28;20529;-81
2022/09/15 03:49:02;;;;;;;7.53;2.30;;;;;;;;;;5061318;28;20052;-81
2022/09/15 03:51:28;;;;;;;5.47;2.40;;;;;;;;;;5062892;28;20117;-81
2022/09/15 03:53:55;;;;;;;5.20;2.42;;;;;;;;;;5064399;28;20440;-81
2022/09/15 03:56:26;;;;;;;5.82;2.20;;;;;;;;;;5062258;28;20029;-80
2022/09/15 03:58:53;;;;;;;5.70;2.10;;;;;;;;;;5076870;28;20544;-81
2022/09/15 04:01:20;;;;;;;5.40;2.50;;;;;;;;;;5064336;28;20047;-81
2022/09/15 04:03:46;;;;;;;5.15;2.25;;;;;;;;;;5059492;28;20048;-81
2022/09/15 04:06:12;;;;;;;5.47;1.90;;;;;;;;;;5057342;28;20400;-81
2022/09/15 04:08:38;;;;;;;5.88;1.88;;;;;;;;;;5057820;28;20067;-81
2022/09/15 04:11:08;;;;;;;5.60;1.55;;;;;;;;;;5078641;28;20035;-81
2022/09/15 04:13:35;;;;;;;3.83;1.40;;;;;;;;;;5059739;28;20024;-81
2022/09/15 04:16:05;;;;;;;7.05;1.80;;;;;;;;;;5055228;28;20028;-80
2022/09/15 04:18:32;;;;;;;4.72;1.60;;;;;;;;;;5058969;28;20028;-80
2022/09/15 04:21:08;;;;;;;4.43;1.50;;;;;;;;;;5059958;28;20017;-81
2022/09/15 04:23:34;;;;;;;6.82;1.45;;;;;;;;;;5060349;28;20029;-81
2022/09/15 04:26:01;;;;;;;3.90;1.42;;;;;;;;;;5058436;28;20656;-80
2022/09/15 04:28:28;;;;;;;4.22;1.20;;;;;;;;;;5060467;28;20033;-80
2022/09/15 04:31:01;;;;;;;3.50;1.40;;;;;;;;;;5060277;28;20047;-79
2022/09/15 04:33:27;;;;;;;5.53;1.42;;;;;;;;;;5060558;28;20120;-79
2022/09/15 04:36:05;;;;;;;4.60;1.85;;;;;;;;;;5058484;28;20059;-81
2022/09/15 04:38:31;;;;;;;5.45;1.45;;;;;;;;;;5043157;28;20057;-81
2022/09/15 04:40:57;;;;;;;3.60;1.50;;;;;;;;;;5060227;28;20071;-82
2022/09/15 04:43:24;;;;;;;3.95;1.48;;;;;;;;;;5059174;28;20048;-80
2022/09/15 04:45:51;;;;;;;2.88;1.27;;;;;;;;;;5056513;28;20101;-81
2022/09/15 04:48:18;;;;;;;4.25;1.33;;;;;;;;;;5056120;28;20037;-80
2022/09/15 04:50:45;;;;;;;5.97;1.70;;;;;;;;;;5054640;28;20027;-81
2022/09/15 04:53:11;;;;;;;4.93;1.30;;;;;;;;;;5056321;28;20108;-81
2022/09/15 04:55:37;;;;;;;3.60;1.30;;;;;;;;;;5042224;28;20048;-80
2022/09/15 04:58:03;;;;;;;4.10;1.58;;;;;;;;;;5052707;28;20077;-80
2022/09/15 05:00:30;;;;;;;4.72;1.63;;;;;;;;;;5054076;28;20520;-81
2022/09/15 05:02:57;;;;;;;3.05;1.40;;;;;;;;;;5056714;28;20079;-80
2022/09/15 05:05:24;;;;;;;4.50;1.63;;;;;;;;;;5057371;28;20493;-80
2022/09/15 05:07:50;;;;;;;4.82;1.50;;;;;;;;;;5055133;28;20021;-80
2022/09/15 05:10:16;;;;;;;4.20;1.40;;;;;;;;;;5051405;28;20606;-79
2022/09/15 05:12:42;;;;;;;4.13;1.50;;;;;;;;;;5052620;28;20032;-79
2022/09/15 05:15:08;;;;;;;5.40;1.52;;;;;;;;;;5054418;28;20036;-80
2022/09/15 05:17:35;;;;;;;4.43;1.60;;;;;;;;;;5054706;28;20037;-79
2022/09/15 05:20:01;;;;;;;4.05;1.88;;;;;;;;;;5056693;28;20037;-79
2022/09/15 05:22:28;;;;;;;3.97;1.70;;;;;;;;;;5054269;28;20025;-79
2022/09/15 05:24:54;;;;;;;3.90;1.75;;;;;;;;;;5056747;28;20025;-80
2022/09/15 05:27:20;;;;;;;4.70;1.58;;;;;;;;;;5055952;28;20029;-79
2022/09/15 05:29:46;;;;;;;4.03;1.45;;;;;;;;;;5056677;28;20056;-79
2022/09/15 05:32:12;;;;;;;3.42;1.70;;;;;;;;;;5057173;28;20056;-80
2022/09/15 05:34:38;;;;;;;4.57;1.75;;;;;;;;;;5056187;28;20515;-80
2022/09/15 05:37:04;;;;;;;4.30;1.38;;;;;;;;;;5056381;28;20029;-80
2022/09/15 05:39:30;;;;;;;4.88;1.88;;;;;;;;;;5056913;28;20025;-79
2022/09/15 05:41:56;;;;;;;3.70;1.45;;;;;;;;;;5057395;28;20501;-79
2022/09/15 05:44:22;;;;;;;3.97;1.67;;;;;;;;;;5056193;28;20029;-79
2022/09/15 05:46:48;;;;;;;3.35;1.45;;;;;;;;;;5046200;28;20048;-81
2022/09/15 05:49:14;;;;;;;4.22;1.77;;;;;;;;;;5057864;28;20090;-80
2022/09/15 05:51:40;;;;;;;3.95;1.77;;;;;;;;;;5055242;28;20029;-79
2022/09/15 05:54:07;;;;;;;3.63;1.38;;;;;;;;;;5055933;28;20091;-79
2022/09/15 05:56:33;;;;;;;3.53;1.27;;;;;;;;;;5036125;28;20105;-79
2022/09/15 05:58:59;;;;;;;4.10;1.45;;;;;;;;;;5045506;28;20021;-78
2022/09/15 06:01:29;;;;;;;4.25;1.40;;;;;;;;;;5056707;28;20028;-78
2022/09/15 06:03:55;;;;;;;3.50;1.35;;;;;;;;;;5056401;28;20074;-79
2022/09/15 06:06:21;;;;;;;4.15;1.35;;;;;;;;;;5054850;28;20084;-79
2022/09/15 06:08:48;;;;;;;5.47;1.80;;;;;;;;;;5055168;28;20071;-79
2022/09/15 06:11:15;;;;;;;3.78;1.35;;;;;;;;;;5056009;28;20032;-79
2022/09/15 06:13:42;;;;;;;3.88;1.50;;;;;;;;;;5055230;28;20032;-79
2022/09/15 06:16:17;;;;;;;3.13;1.38;;;;;;;;;;5040970;28;20026;-78
2022/09/15 06:18:43;;;;;;;5.68;2.85;;;;;;;;;;5038142;28;20485;-80
2022/09/15 06:21:16;;;;;;;4.20;1.83;;;;;;;;;;5056353;28;20400;-79
2022/09/15 06:23:42;;;;;;;3.45;1.45;;;;;;;;;;5044351;28;20504;-79
2022/09/15 06:26:13;;;;;;;4.07;1.52;;;;;;;;;;5044253;28;21546;-78
2022/09/15 06:28:41;;;;;;;5.25;1.63;;;;;;;;;;5046224;28;20454;-80
2022/09/15 06:31:11;;;;;;;3.80;1.58;;;;;;;;;;5051681;28;20037;-79
2022/09/15 06:33:41;;;;;;;3.95;1.15;;;;;;;;;;5056339;28;20484;-79
2022/09/15 06:36:08;;;;;;;3.58;1.40;;;;;;;;;;5052753;28;20063;-78
2022/09/15 06:38:34;;;;;;;3.22;1.10;;;;;;;;;;5049521;28;20021;-79
2022/09/15 06:41:00;;;;;;;3.28;1.20;;;;;;;;;;5054624;28;20058;-78
2022/09/15 06:43:26;;;;;;;3.47;1.30;;;;;;;;;;5055351;28;20021;-79
2022/09/15 06:45:52;;;;;;;3.42;1.20;;;;;;;;;;5054356;28;20103;-79
2022/09/15 06:48:18;;;;;;;3.97;1.40;;;;;;;;;;5054993;28;20045;-78
2022/09/15 06:50:45;;;;;;;4.22;1.33;;;;;;;;;;5055699;28;20028;-77
2022/09/15 06:53:11;;;;;;;3.03;1.15;;;;;;;;;;5059421;28;20104;-77
2022/09/15 06:55:37;;;;;;;2.33;1.00;;;;;;;;;;5055754;28;20049;-80
2022/09/15 06:58:03;;;;;;;3.63;1.23;;;;;;;;;;5048160;28;20498;-79
2022/09/15 07:00:29;;;;;;;3.85;1.40;;;;;;;;;;5058842;28;20100;-81
2022/09/15 07:02:55;;;;;;;4.20;1.50;;;;;;;;;;5057821;28;20075;-80
2022/09/15 07:05:24;;;;;;;3.17;1.10;;;;;;;;;;5057144;28;20021;-78
2022/09/15 07:07:50;;;;;;;3.13;1.13;;;;;;;;;;5057539;28;20029;-79
2022/09/15 07:10:16;;;;;;;3.25;1.20;;;;;;;;;;5058679;28;20100;-79
2022/09/15 07:12:42;;;;;;;3.58;1.55;;;;;;;;;;5058384;28;20143;-78
2022/09/15 07:15:10;;;;;;;3.00;1.10;;;;;;;;;;5058492;28;20067;-82
2022/09/15 07:17:36;;;;;;;4.85;1.98;;;;;;;;;;5041539;28;20489;-82
2022/09/15 07:20:03;;;;;;;3.08;1.15;;;;;;;;;;5038933;28;20021;-81
2022/09/15 07:22:29;;;;;;;2.85;1.00;;;;;;;;;;5038397;28;20022;-81
2022/09/15 07:24:55;;;;;;;3.72;1.55;;;;;;;;;;5040153;28;20026;-78
2022/09/15 07:27:25;;;;;;;3.97;1.13;;;;;;;;;;5039967;28;20093;-79
2022/09/15 07:29:51;;;;;;;3.45;1.13;;;;;;;;;;5039024;28;20044;-79
2022/09/15 07:32:17;;;;;;;4.60;1.50;;;;;;;;;;5038600;28;20033;-78
2022/09/15 07:34:43;;;;;;;4.35;1.02;;;;;;;;;;5037939;28;20048;-79
2022/09/15 07:37:09;;;;;;;4.40;1.10;;;;;;;;;;5038017;28;20116;-79
2022/09/15 07:39:35;;;;;;;4.28;1.25;;;;;;;;;;5038605;28;20030;-81
2022/09/15 07:42:01;;;;;;;3.58;1.20;;;;;;;;;;5053237;28;20036;-80
2022/09/15 07:44:27;;;;;;;4.63;1.13;;;;;;;;;;5057391;28;20029;-79
2022/09/15 07:46:53;;;;;;;4.05;1.40;;;;;;;;;;5055245;28;20485;-82
2022/09/15 07:49:19;;;;;;;3.25;1.05;;;;;;;;;;5057358;28;20024;-81
2022/09/15 07:51:45;;;;;;;3.38;1.20;;;;;;;;;;5057503;28;20366;-78
2022/09/15 07:54:12;;;;;;;3.88;1.30;;;;;;;;;;5055481;28;20025;-79
2022/09/15 07:56:40;;;;;;;3.55;1.23;;;;;;;;;;5056429;28;20441;-79
2022/09/15 07:59:06;;;;;;;3.00;1.20;;;;;;;;;;5058947;28;20435;-79
2022/09/15 08:01:33;;;;;;;3.10;1.00;;;;;;;;;;5057241;28;20035;-79
2022/09/15 08:03:59;;;;;;;2.88;1.17;;;;;;;;;;5055700;28;20115;-80
2022/09/15 08:06:26;;;;;;;3.40;1.20;;;;;;;;;;5056944;28;20434;-80
2022/09/15 08:08:52;;;;;;;4.13;1.20;;;;;;;;;;5056112;28;20091;-78
2022/09/15 08:11:18;;;;;;;3.65;1.30;;;;;;;;;;5055102;28;20029;-79
2022/09/15 08:13:45;;;;;;;2.97;1.10;;;;;;;;;;5055801;28;20094;-77
2022/09/15 08:16:12;;;;;;;4.30;1.40;;;;;;;;;;5057069;28;20052;-78
2022/09/15 08:18:40;;;;;;;4.90;1.40;;;;;;;;;;5054628;28;20025;-77
2022/09/15 08:21:08;;;;;;;3.00;1.13;;;;;;;;;;5056716;28;20013;-80
2022/09/15 08:23:34;;;;;;;3.78;1.20;;;;;;;;;;5055459;28;20033;-78
2022/09/15 08:26:00;;;;;;;3.72;1.40;;;;;;;;;;5054620;28;20392;-78
2022/09/15 08:28:26;;;;;;;2.83;1.10;;;;;;;;;;5054586;28;20032;-78
2022/09/15 08:31:18;;;;;;;3.35;1.02;;;;;;;;;;5055476;28;20036;-78
2022/09/15 08:33:51;;;;;;;3.75;1.40;;;;;;;;;;5055160;28;20037;-77
2022/09/15 08:36:17;;;;;;;3.00;1.10;;;;;;;;;;5055754;28;20025;-77
2022/09/15 08:38:44;;;;;;;3.90;1.30;;;;;;;;;;5056249;28;20040;-80
2022/09/15 08:41:16;;;;;;;2.25;0.98;;;;;;;;;;5055816;28;20053;-78
2022/09/15 08:44:20;;;;;;;3.63;1.45;;;;;;;;;;5043071;28;20057;-78
2022/09/15 08:46:53;;;;;;;2.50;1.08;;;;;;;;;;5016423;28;20056;-80
2022/09/15 08:49:19;;;;;;;;;;;;;;;;;;5034124;28;20038;-78
2022/09/15 08:51:47;;;;;;;2.88;1.20;;;;;;;;;;5035640;28;19912;-80
2022/09/15 08:54:16;;;;;;;2.83;1.10;;;;;;;;;;5056213;28;20087;-81
2022/09/15 08:56:43;;;;;;;3.40;1.27;;;;;;;;;;5058132;28;20028;-80
2022/09/15 08:59:13;;;;;;;4.18;1.20;;;;;;;;;;5056901;28;20025;-80
2022/09/15 09:02:11;;;;;;;3.30;1.23;;;;;;;;;;5056150;28;20021;-79
2022/09/15 09:05:09;;;;;;;3.53;1.20;;;;;;;;;;5045189;28;20042;-78
2022/09/15 09:07:35;;;;;;;3.67;1.33;;;;;;;;;;5041608;28;20037;-81
2022/09/15 09:10:25;;;;;;;2.58;1.17;;;;;;;;;;5056545;28;20029;-80
2022/09/15 09:12:51;;;;;;;3.05;1.17;;;;;;;;;;5057552;28;20028;-80
2022/09/15 09:15:20;;;;;;;4.32;1.33;;;;;;;;;;5057370;28;20028;-81
2022/09/15 09:17:54;;;;;;;3.78;1.33;;;;;;;;;;5058032;28;20017;-84
2022/09/15 09:20:28;;;;;;;2.33;0.90;;;;;;;;;;5057364;28;20021;-82
2022/09/15 09:22:54;;;;;;;3.08;1.08;;;;;;;;;;5053329;28;20045;-84
2022/09/15 09:25:21;;;;;;;2.85;1.30;;;;;;;;;;5058165;28;20047;-83
2022/09/15 09:27:47;;;;;;;3.03;1.02;;;;;;;;;;5057769;28;20370;-82
2022/09/15 09:30:18;;;;;;;2.80;1.00;;;;;;;;;;5055744;28;20029;-79
2022/09/15 09:33:03;;;;;;;1.95;0.77;;;;;;;;;;5051570;28;20057;-82
2022/09/15 09:36:05;;;;;;;3.30;1.20;;;;;;;;;;5036754;28;20524;-81
2022/09/15 09:38:34;;;;;;;4.35;1.20;;;;;;;;;;5071362;28;20024;-81
2022/09/15 09:41:01;;;;;;;2.53;0.88;;;;;;;;;;5073425;28;20068;-80
2022/09/15 09:43:28;;;;;;;2.65;1.00;;;;;;;;;;5074216;28;20028;-81
2022/09/15 09:45:54;;;;;;;3.20;1.10;;;;;;;;;;5075650;28;20036;-82
2022/09/15 09:48:21;;;;;;;5.03;2.72;;;;;;;;;;5074211;28;20523;-81
2022/09/15 09:50:49;;;;;;;2.75;0.80;;;;;;;;;;5084638;28;20035;-80
2022/09/15 09:53:29;;;;;;;3.75;1.10;;;;;;;;;;5082947;28;20043;-79
2022/09/15 09:56:11;;;;;;;2.65;1.08;;;;;;;;;;5074035;28;20039;-81
2022/09/15 09:58:37;;;;;;;3.60;1.10;;;;;;;;;;5073374;28;20400;-80
2022/09/15 10:01:10;;;;;;;2.92;1.00;;;;;;;;;;5073396;28;20028;-79
2022/09/15 10:03:37;;;;;;;2.90;0.73;;;;;;;;;;5060998;28;20231;-80
2022/09/15 10:06:11;;;;;;;2.20;0.90;;;;;;;;;;5084855;28;20039;-81
2022/09/15 10:08:38;;;;;;;2.40;0.80;;;;;;;;;;5094536;28;21147;-80
2022/09/15 10:11:05;;;;;;;2.10;0.68;;;;;;;;;;5079302;28;20066;-82
2022/09/15 10:13:32;;;;;;;2.58;0.88;;;;;;;;;;5040034;28;20124;-80
2022/09/15 10:16:00;;;;;;;3.05;0.80;;;;;;;;;;5040112;28;20028;-78
2022/09/15 10:18:34;;;;;;;2.50;0.85;;;;;;;;;;5054467;28;20021;-81
2022/09/15 10:21:01;;;;;;;3.95;1.10;;;;;;;;;;5053295;28;20051;-80
2022/09/15 10:23:28;;;;;;;2.75;0.90;;;;;;;;;;5045783;28;20025;-78
2022/09/15 10:25:57;;;;;;;1.83;0.70;;;;;;;;;;5034487;28;20508;-78
2022/09/15 10:28:24;;;;;;;3.70;1.02;;;;;;;;;;5040392;28;20029;-78
2022/09/15 10:30:57;;;;;;;2.90;0.90;;;;;;;;;;5058276;28;20087;-81
2022/09/15 10:33:24;;;;;;;3.70;1.20;;;;;;;;;;5058241;28;20549;-78
2022/09/15 10:35:51;;;;;;;3.33;1.10;;;;;;;;;;5056206;28;20059;-78
2022/09/15 10:38:21;;;;;;;3.95;1.10;;;;;;;;;;5058277;28;20075;-81
2022/09/15 10:41:02;;;;;;;3.30;1.10;;;;;;;;;;5057799;28;20021;-80
2022/09/15 10:43:47;;;;;;;2.63;0.90;;;;;;;;;;5056009;28;20048;-79
2022/09/15 10:46:26;;;;;;;2.95;0.95;;;;;;;;;;5058345;28;20044;-80
2022/09/15 10:48:55;;;;;;;4.57;1.10;;;;;;;;;;5059333;28;20025;-79
2022/09/15 10:51:25;;;;;;;3.70;0.75;;;;;;;;;;5058080;28;20024;-80
2022/09/15 10:53:54;;;;;;;2.42;0.77;;;;;;;;;;5058212;28;20017;-82
2022/09/15 10:56:23;;;;;;;2.92;0.90;;;;;;;;;;5056786;28;20021;-80
2022/09/15 10:58:50;;;;;;;4.07;1.00;;;;;;;;;;5058231;28;20061;-79
2022/09/15 11:01:31;;;;;;;2.10;0.85;;;;;;;;;;5056920;28;20614;-80
2022/09/15 11:04:21;;;;;;;2.70;0.93;;;;;;;;;;5057859;28;20025;-78
2022/09/15 11:06:54;;;;;;;2.47;1.00;;;;;;;;;;5048901;28;20106;-80
2022/09/15 11:09:20;;;;;;;;;;;;;;;;;;5038344;28;20033;-79
2022/09/15 11:12:06;;;;;;;4.00;1.00;;;;;;;;;;5047419;28;19908;-79
2022/09/15 11:14:32;;;;;;;2.45;0.90;;;;;;;;;;5058394;28;20048;-79
2022/09/15 11:17:24;;;;;;;2.95;0.82;;;;;;;;;;5054413;28;20025;-79
2022/09/15 11:19:54;;;;;;;2.78;0.70;;;;;;;;;;5056515;28;20074;-79
2022/09/15 11:22:33;;;;;;;4.00;0.82;;;;;;;;;;5057327;28;20078;-79
2022/09/15 11:25:01;;;;;;;2.40;0.90;;;;;;;;;;5051033;28;20025;-78
2022/09/15 11:27:30;;;;;;;2.67;0.80;;;;;;;;;;5058381;28;20036;-80
2022/09/15 11:30:02;;;;;;;2.63;1.20;;;;;;;;;;5057220;28;20030;-81
2022/09/15 11:32:28;;;;;;;;;;;;;;;;;;5058472;28;20025;-79
2022/09/15 11:34:57;;;;;;;2.28;0.80;;;;;;;;;;5060222;28;19916;-78
2022/09/15 11:37:26;;;;;;;2.67;0.80;;;;;;;;;;5048049;28;20036;-80
2022/09/15 11:40:27;;;;;;;2.17;0.70;;;;;;;;;;5044103;28;20096;-80
2022/09/15 11:43:08;;;;;;;1.85;0.55;;;;;;;;;;5058074;28;20025;-81
2022/09/15 11:45:38;;;;;;;3.78;0.80;;;;;;;;;;5056019;28;20609;-80
2022/09/15 11:48:11;;;;;;;1.58;0.68;;;;;;;;;;5051494;28;20049;-81
2022/09/15 11:50:40;;;;;;;2.22;0.70;;;;;;;;;;5043470;28;20047;-79
2022/09/15 11:53:15;;;;;;;2.25;0.65;;;;;;;;;;5054668;28;20021;-80
2022/09/15 11:55:57;;;;;;;1.83;0.70;;;;;;;;;;5053793;28;20400;-78
2022/09/15 11:58:23;;;;;;;1.85;0.63;;;;;;;;;;5054307;28;20044;-80
2022/09/15 12:01:07;;;;;;;2.42;0.93;;;;;;;;;;5055004;28;20028;-78
2022/09/15 12:03:45;;;;;;;2.20;0.77;;;;;;;;;;5055079;28;20562;-79
2022/09/15 12:06:17;;;;;;;0.95;0.40;;;;;;;;;;5055599;28;20033;-79
2022/09/15 12:08:46;;;;;;;1.63;0.60;;;;;;;;;;5056083;28;20033;-80
2022/09/15 12:11:16;;;;;;;3.08;0.90;;;;;;;;;;5057081;28;20037;-78
2022/09/15 12:13:42;;;;;;;1.10;0.50;;;;;;;;;;5057515;28;20088;-79
2022/09/15 12:16:09;;;;;;;1.67;0.65;;;;;;;;;;5056114;28;20313;-80
2022/09/15 12:18:48;;;;;;;2.92;0.80;;;;;;;;;;5058879;28;20021;-79
2022/09/15 12:21:27;;;;;;;1.58;0.60;;;;;;;;;;5059274;28;20055;-79
2022/09/15 12:24:19;;;;;;;2.78;0.70;;;;;;;;;;5057696;28;20333;-80
2022/09/15 12:26:46;;;;;;;2.78;0.90;;;;;;;;;;5057892;28;20043;-80
2022/09/15 12:29:21;;;;;;;2.15;0.60;;;;;;;;;;5059704;28;20029;-80
2022/09/15 12:31:47;;;;;;;2.97;0.95;;;;;;;;;;5058810;28;20137;-79
2022/09/15 12:34:25;;;;;;;1.95;0.80;;;;;;;;;;5058194;28;20052;-79
2022/09/15 12:36:52;;;;;;;2.35;0.90;;;;;;;;;;5038246;28;20028;-80
2022/09/15 12:39:37;;;;;;;2.38;0.70;;;;;;;;;;5040077;28;20052;-79
2022/09/15 12:42:08;;;;;;;3.58;0.80;;;;;;;;;;5057377;28;20013;-80
2022/09/15 12:44:34;;;;;;;3.97;0.80;;;;;;;;;;5056616;28;20496;-79
2022/09/15 12:47:01;;;;;;;2.13;0.70;;;;;;;;;;5056116;28;20084;-80
2022/09/15 12:49:33;;;;;;;3.35;0.75;;;;;;;;;;5057420;28;20795;-79
2022/09/15 12:52:00;;;;;;;2.93;0.97;;;;;;;;;;5058393;28;20111;-80
2022/09/15 12:54:29;;;;;;;2.08;0.65;;;;;;;;;;5058232;28;20032;-79
2022/09/15 12:56:57;;;;;;;2.33;0.77;;;;;;;;;;5058061;28;20013;-80
2022/09/15 12:59:24;;;;;;;2.53;0.80;;;;;;;;;;5057437;28;20134;-79
2022/09/15 13:01:51;;;;;;;2.38;0.73;;;;;;;;;;5058525;28;20473;-79
2022/09/15 13:04:36;;;;;;;2.97;1.10;;;;;;;;;;5057033;28;20455;-81
2022/09/15 13:07:14;;;;;;;2.75;0.93;;;;;;;;;;5050581;28;20082;-80
2022/09/15 13:09:57;;;;;;;2.35;0.70;;;;;;;;;;5056596;28;20021;-80
2022/09/15 13:12:23;;;;;;;;;;;;;;;;;;5057626;28;20090;-80
2022/09/15 13:14:50;;;;;;;4.35;1.10;;;;;;;;;;5046279;28;19987;-80
2022/09/15 13:17:18;;;;;;;2.78;0.88;;;;;;;;;;5055301;28;20037;-80
2022/09/15 13:19:45;;;;;;;3.53;1.25;;;;;;;;;;5056850;28;20198;-80
2022/09/15 13:22:11;;;;;;;2.63;1.10;;;;;;;;;;5057000;28;20398;-80
2022/09/15 13:24:46;;;;;;;2.30;0.75;;;;;;;;;;5057909;28;20075;-80
2022/09/15 13:27:17;;;;;;;3.10;1.00;;;;;;;;;;5057275;28;20079;-81
2022/09/15 13:29:50;;;;;;;2.60;1.00;;;;;;;;;;5054964;28;20021;-80
2022/09/15 13:32:16;;;;;;;;;;;;;;;;;;5056117;28;20036;-80
2022/09/15 13:34:42;;;;;;;3.08;0.98;;;;;;;;;;5058877;28;19913;-80
2022/09/15 13:37:19;;;;;;;2.08;0.80;;;;;;;;;;5050153;28;20026;-80
2022/09/15 13:39:45;;;;;;;3.78;0.90;;;;;;;;;;5055841;28;20396;-80
2022/09/15 13:42:26;;;;;;;2.28;0.80;;;;;;;;;;5057070;28;20025;-80
2022/09/15 13:45:15;;;;;;;4.57;1.08;;;;;;;;;;5056679;28;20021;-79
2022/09/15 13:47:54;;;;;;;2.65;0.90;;;;;;;;;;5043902;28;20496;-79
2022/09/15 13:50:24;;;;;;;2.03;0.80;;;;;;;;;;5036061;28;20052;-79
2022/09/15 13:53:06;;;;;;;6.47;1.80;;;;;;;;;;5036873;28;20025;-78
2022/09/15 13:55:37;;;;;;;2.10;0.80;;;;;;;;;;5034518;28;20026;-78
2022/09/15 13:58:04;;;;;;;2.88;1.02;;;;;;;;;;5032778;28;20391;-78
2022/09/15 14:00:32;;;;;;;2.80;0.82;;;;;;;;;;5042183;28;20040;-78
2022/09/15 14:03:03;;;;;;;3.60;1.10;;;;;;;;;;5052943;28;20013;-78
2022/09/15 14:05:30;;;;;;;2.65;0.90;;;;;;;;;;5052578;28;20396;-78
2022/09/15 14:07:59;;;;;;;2.55;0.80;;;;;;;;;;5051600;28;20037;-78
2022/09/15 14:10:27;;;;;;;3.78;1.00;;;;;;;;;;5052620;28;20032;-78
2022/09/15 14:12:58;;;;;;;3.17;0.90;;;;;;;;;;5054937;28;20036;-78
2022/09/15 14:15:24;;;;;;;2.60;0.85;;;;;;;;;;5056919;28;20033;-78
2022/09/15 14:17:51;;;;;;;2.47;0.98;;;;;;;;;;5053942;28;20149;-78
2022/09/15 14:20:29;;;;;;;2.58;1.10;;;;;;;;;;5054790;28;20051;-78
2022/09/15 14:22:56;;;;;;;3.53;1.10;;;;;;;;;;5053807;28;20025;-78
2022/09/15 14:25:22;;;;;;;2.83;1.00;;;;;;;;;;5054834;28;20059;-79
2022/09/15 14:27:52;;;;;;;2.20;0.77;;;;;;;;;;5046279;28;20128;-78
2022/09/15 14:30:20;;;;;;;2.58;0.90;;;;;;;;;;5051860;28;20035;-77
2022/09/15 14:32:48;;;;;;;3.97;1.73;;;;;;;;;;5053902;28;20021;-77
2022/09/15 14:35:17;;;;;;;3.03;1.10;;;;;;;;;;5053621;28;20033;-79
2022/09/15 14:37:48;;;;;;;2.80;1.00;;;;;;;;;;5056923;28;20029;-79
2022/09/15 14:40:19;;;;;;;2.55;1.00;;;;;;;;;;5056918;28;20021;-79
2022/09/15 14:42:45;;;;;;;3.38;1.13;;;;;;;;;;5057967;28;20058;-80
2022/09/15 14:45:11;;;;;;;5.07;1.30;;;;;;;;;;5056530;28;20059;-79
2022/09/15 14:47:38;;;;;;;3.03;1.00;;;;;;;;;;5057768;28;20163;-80
2022/09/15 14:50:06;;;;;;;2.80;1.00;;;;;;;;;;5055930;28;20049;-80
2022/09/15 14:52:35;;;;;;;2.75;0.90;;;;;;;;;;5055265;28;20048;-79
2022/09/15 14:55:02;;;;;;;3.13;1.00;;;;;;;;;;5055014;28;20510;-78
2022/09/15 14:57:30;;;;;;;3.30;1.10;;;;;;;;;;5053852;28;20480;-79
2022/09/15 14:59:57;;;;;;;2.95;1.10;;;;;;;;;;5055061;28;20086;-79
2022/09/15 15:02:29;;;;;;;4.25;1.15;;;;;;;;;;5053992;28;20404;-79